Manhattan, KS (66503)

7:26 PM CDT on August 04, 2015 (GMT -0500)
Highland Ridge | | Change Station
CLOSE
Current Station
Personal Weather Station
Location: Manhattan, KS
Elevation: 1148 ft
Nearby Weather Stations

Elev 1148 ft 39.18 °N, 96.65 °W | Updated 3 minutes ago

Thunderstorm
Thunderstorm
74.7 °F
Feels Like 75 °F
N
3.7
Wind Variable Wind from SE

Today
High -- | Low -- °F
--% Chance of Precip.
Yesterday
High -- | Low -- °F
Precip. -- in
6:29 AM 8:35 PM
Waning Gibbous, 73% visible
Pressure 29.91 in
Visibility 10.0 miles
Clouds Clear
Heat Index 75 °F
Dew Point 70 °F
Humidity 84%
Rainfall 0.11 in
Snow Depth Not available.
UV 1 out of 12
Pollen 7.00 out of 12
Air Quality Not available.
Flu Activity Not available.
METAR KMHK 042352Z 11004KT 10SM CLR 24/22 A2994 RMK AO2 RAE2254B20E32 SLP129 P0000 60025 T02440222 10322 20239 50001

More Conditions Fewer Conditions

Pressure 29.91 in
Visibility 10.0 miles
Clouds Clear
Heat Index 75 °F
Dew Point 70 °F
Humidity 84%
Rainfall 0.11 in
Snow Depth Not available.
UV 1 out of 12
Pollen 7.00 out of 12
Air Quality Not available.
Flu Activity Not available.
METAR KMHK 042352Z 11004KT 10SM CLR 24/22 A2994 RMK AO2 RAE2254B20E32 SLP129 P0000 60025 T02440222 10322 20239 50001

More Conditions Fewer Conditions

10-Day Weather Forecast

×

Almanac

Astronomy

Aug. 04, 2015 Rise Set
Actual Time
Civil Twilight
Nautical Twilight
Astronomical Twilight
Moon
Length of Visible Light
Length of Day
Tomorrow will be .
, % of the Moon is Illuminated

Today's Extremes

State Highs State Lows

Community

WunderPhotos

Upload Photos

1,844,033 photos uploaded!

WunderBlogs® & News

Nearby

Air Quality

  Air Quality AQ Index Pollutant
Not available.

Snow Depth

Station Depth Elevation

Earthquake Activity

City Distance Mag. Time & Date
Minimum magnitude displayed is 2.5.

Coastal Water Temperatures

Place Temperature

Stations

Nearby Weather Stations

Station Location Temp. Windchill Dew Point Humidity Wind Precip. Elev Updated Type